sensor_id;sensor_type;location;lat;lon;timestamp;temperature;humidity
43607;DHT22;29197;44.788;10.366;2022-12-29T07:08:55;11.10;99.90
43607;DHT22;29197;44.788;10.366;2022-12-29T07:11:45;11.10;99.90
43607;DHT22;29197;44.788;10.366;2022-12-29T07:14:34;11.20;99.90
43607;DHT22;29197;44.788;10.366;2022-12-29T07:17:29;11.20;99.90
43607;DHT22;29197;44.788;10.366;2022-12-29T07:20:19;11.20;99.90
43607;DHT22;29197;44.788;10.366;2022-12-29T07:23:13;11.20;99.90
43607;DHT22;29197;44.788;10.366;2022-12-29T07:26:05;11.20;99.90
43607;DHT22;29197;44.788;10.366;2022-12-29T07:28:55;11.20;99.90
43607;DHT22;29197;44.788;10.366;2022-12-29T07:31:44;11.20;99.90
43607;DHT22;29197;44.788;10.366;2022-12-29T07:34:34;11.20;99.90
43607;DHT22;29197;44.788;10.366;2022-12-29T07:37:23;10.90;99.90
43607;DHT22;29197;44.788;10.366;2022-12-29T07:40:12;10.90;99.90
43607;DHT22;29197;44.788;10.366;2022-12-29T07:43:03;11.00;99.90
43607;DHT22;29197;44.788;10.366;2022-12-29T07:45:52;11.10;99.90
43607;DHT22;29197;44.788;10.366;2022-12-29T07:48:42;11.10;99.90
43607;DHT22;29197;44.788;10.366;2022-12-29T07:51:31;11.20;99.90
43607;DHT22;29197;44.788;10.366;2022-12-29T07:54:21;11.20;99.90
43607;DHT22;29197;44.788;10.366;2022-12-29T07:57:11;11.30;99.90
43607;DHT22;29197;44.788;10.366;2022-12-29T08:00:03;11.30;99.90
43607;DHT22;29197;44.788;10.366;2022-12-29T08:02:52;10.90;99.90
43607;DHT22;29197;44.788;10.366;2022-12-29T08:05:41;11.30;99.90
43607;DHT22;29197;44.788;10.366;2022-12-29T08:08:30;11.80;99.90
43607;DHT22;29197;44.788;10.366;2022-12-29T08:11:20;11.30;99.90
43607;DHT22;29197;44.788;10.366;2022-12-29T08:14:08;11.30;99.90
43607;DHT22;29197;44.788;10.366;2022-12-29T08:16:59;11.30;99.90
43607;DHT22;29197;44.788;10.366;2022-12-29T08:19:48;11.30;99.90
43607;DHT22;29197;44.788;10.366;2022-12-29T08:22:39;11.30;99.90
43607;DHT22;29197;44.788;10.366;2022-12-29T08:25:28;11.30;99.90
43607;DHT22;29197;44.788;10.366;2022-12-29T08:28:17;11.40;99.90
43607;DHT22;29197;44.788;10.366;2022-12-29T08:31:06;11.30;99.90
43607;DHT22;29197;44.788;10.366;2022-12-29T08:33:57;11.30;99.90
43607;DHT22;29197;44.788;10.366;2022-12-29T08:36:48;11.30;99.90
43607;DHT22;29197;44.788;10.366;2022-12-29T08:39:37;11.20;99.90
43607;DHT22;29197;44.788;10.366;2022-12-29T08:42:26;11.30;99.90
43607;DHT22;29197;44.788;10.366;2022-12-29T08:45:18;11.30;99.90
43607;DHT22;29197;44.788;10.366;2022-12-29T08:48:07;11.30;99.90
43607;DHT22;29197;44.788;10.366;2022-12-29T08:50:58;11.30;99.90
43607;DHT22;29197;44.788;10.366;2022-12-29T08:53:47;11.30;99.90
43607;DHT22;29197;44.788;10.366;2022-12-29T08:56:35;11.40;99.90
43607;DHT22;29197;44.788;10.366;2022-12-29T08:59:24;11.40;99.90
43607;DHT22;29197;44.788;10.366;2022-12-29T09:02:13;11.40;99.90
43607;DHT22;29197;44.788;10.366;2022-12-29T09:05:10;11.40;99.90
43607;DHT22;29197;44.788;10.366;2022-12-29T09:08:00;11.30;99.90
43607;DHT22;29197;44.788;10.366;2022-12-29T09:10:49;11.20;99.90
43607;DHT22;29197;44.788;10.366;2022-12-29T09:13:38;11.30;99.90
43607;DHT22;29197;44.788;10.366;2022-12-29T09:16:27;11.30;99.90
43607;DHT22;29197;44.788;10.366;2022-12-29T09:19:16;11.30;99.90
43607;DHT22;29197;44.788;10.366;2022-12-29T09:22:04;11.40;99.90
43607;DHT22;29197;44.788;10.366;2022-12-29T09:24:55;11.40;99.90
43607;DHT22;29197;44.788;10.366;2022-12-29T09:27:44;11.40;99.90
43607;DHT22;29197;44.788;10.366;2022-12-29T09:30:37;11.40;99.90
43607;DHT22;29197;44.788;10.366;2022-12-29T09:33:27;11.30;99.90
43607;DHT22;29197;44.788;10.366;2022-12-29T09:36:16;11.30;99.90
43607;DHT22;29197;44.788;10.366;2022-12-29T09:39:06;11.40;99.90
43607;DHT22;29197;44.788;10.366;2022-12-29T09:42:02;11.40;99.90
43607;DHT22;29197;44.788;10.366;2022-12-29T09:45:05;11.40;99.90
43607;DHT22;29197;44.788;10.366;2022-12-29T09:47:57;11.40;99.90
43607;DHT22;29197;44.788;10.366;2022-12-29T09:50:55;11.50;99.90
43607;DHT22;29197;44.788;10.366;2022-12-29T09:53:50;11.50;99.90
43607;DHT22;29197;44.788;10.366;2022-12-29T09:56:40;11.50;99.90
43607;DHT22;29197;44.788;10.366;2022-12-29T09:59:39;11.50;99.90
43607;DHT22;29197;44.788;10.366;2022-12-29T10:02:37;11.50;99.90
43607;DHT22;29197;44.788;10.366;2022-12-29T10:05:33;11.60;99.90
43607;DHT22;29197;44.788;10.366;2022-12-29T10:08:29;11.60;99.90
43607;DHT22;29197;44.788;10.366;2022-12-29T10:11:33;11.60;99.90
43607;DHT22;29197;44.788;10.366;2022-12-29T10:14:38;11.60;99.90
43607;DHT22;29197;44.788;10.366;2022-12-29T10:17:34;11.60;99.90
43607;DHT22;29197;44.788;10.366;2022-12-29T10:20:31;11.40;99.90
43607;DHT22;29197;44.788;10.366;2022-12-29T10:23:27;11.50;99.90
43607;DHT22;29197;44.788;10.366;2022-12-29T10:26:19;11.40;99.90
43607;DHT22;29197;44.788;10.366;2022-12-29T10:29:14;11.40;99.90
43607;DHT22;29197;44.788;10.366;2022-12-29T10:32:13;11.50;99.90
43607;DHT22;29197;44.788;10.366;2022-12-29T10:35:11;11.60;99.90
43607;DHT22;29197;44.788;10.366;2022-12-29T10:38:05;12.10;99.90
43607;DHT22;29197;44.788;10.366;2022-12-29T10:41:04;12.40;99.90
43607;DHT22;29197;44.788;10.366;2022-12-29T10:43:57;12.50;99.90
43607;DHT22;29197;44.788;10.366;2022-12-29T10:46:54;12.50;99.90
43607;DHT22;29197;44.788;10.366;2022-12-29T10:49:46;12.40;99.90
43607;DHT22;29197;44.788;10.366;2022-12-29T10:52:38;12.30;99.90
43607;DHT22;29197;44.788;10.366;2022-12-29T10:55:31;12.20;99.90
43607;DHT22;29197;44.788;10.366;2022-12-29T10:58:21;12.20;99.90
43607;DHT22;29197;44.788;10.366;2022-12-29T11:01:12;12.10;99.90
43607;DHT22;29197;44.788;10.366;2022-12-29T11:04:04;12.00;99.90
43607;DHT22;29197;44.788;10.366;2022-12-29T11:06:56;12.00;99.90
43607;DHT22;29197;44.788;10.366;2022-12-29T11:09:45;11.90;99.90
43607;DHT22;29197;44.788;10.366;2022-12-29T11:12:34;11.90;99.90
43607;DHT22;29197;44.788;10.366;2022-12-29T11:15:23;11.90;99.90
43607;DHT22;29197;44.788;10.366;2022-12-29T11:18:21;11.90;99.90
43607;DHT22;29197;44.788;10.366;2022-12-29T11:21:27;11.80;99.90
43607;DHT22;29197;44.788;10.366;2022-12-29T11:24:23;11.90;99.90
43607;DHT22;29197;44.788;10.366;2022-12-29T11:27:15;11.90;99.90
43607;DHT22;29197;44.788;10.366;2022-12-29T11:30:22;11.80;99.90
43607;DHT22;29197;44.788;10.366;2022-12-29T11:33:11;11.80;99.90
43607;DHT22;29197;44.788;10.366;2022-12-29T11:36:02;11.80;99.90
43607;DHT22;29197;44.788;10.366;2022-12-29T11:38:54;11.70;99.90
43607;DHT22;29197;44.788;10.366;2022-12-29T11:41:52;11.80;99.90
43607;DHT22;29197;44.788;10.366;2022-12-29T11:44:44;11.80;99.90
43607;DHT22;29197;44.788;10.366;2022-12-29T11:47:33;11.70;99.90
43607;DHT22;29197;44.788;10.366;2022-12-29T11:50:26;11.70;99.90
43607;DHT22;29197;44.788;10.366;2022-12-29T11:53:20;11.70;99.90
43607;DHT22;29197;44.788;10.366;2022-12-29T11:56:12;11.70;99.90
43607;DHT22;29197;44.788;10.366;2022-12-29T11:59:25;11.70;99.90
43607;DHT22;29197;44.788;10.366;2022-12-29T12:02:33;11.70;99.90
43607;DHT22;29197;44.788;10.366;2022-12-29T12:05:35;11.70;99.90
43607;DHT22;29197;44.788;10.366;2022-12-29T12:08:33;11.70;99.90
43607;DHT22;29197;44.788;10.366;2022-12-29T12:11:26;11.70;99.90
43607;DHT22;29197;44.788;10.366;2022-12-29T12:14:23;11.70;99.90
43607;DHT22;29197;44.788;10.366;2022-12-29T12:17:18;11.70;99.90
43607;DHT22;29197;44.788;10.366;2022-12-29T12:20:18;11.70;99.90
43607;DHT22;29197;44.788;10.366;2022-12-29T12:23:18;11.70;99.90
43607;DHT22;29197;44.788;10.366;2022-12-29T12:26:11;11.70;99.90
43607;DHT22;29197;44.788;10.366;2022-12-29T12:29:07;11.70;99.90
43607;DHT22;29197;44.788;10.366;2022-12-29T12:32:04;11.70;99.90
43607;DHT22;29197;44.788;10.366;2022-12-29T12:34:55;11.70;99.90
43607;DHT22;29197;44.788;10.366;2022-12-29T12:38:03;11.70;99.90
43607;DHT22;29197;44.788;10.366;2022-12-29T12:41:08;11.70;99.90
43607;DHT22;29197;44.788;10.366;2022-12-29T12:44:12;11.70;99.90
43607;DHT22;29197;44.788;10.366;2022-12-29T12:47:18;11.70;99.90
43607;DHT22;29197;44.788;10.366;2022-12-29T12:50:24;11.70;99.90
43607;DHT22;29197;44.788;10.366;2022-12-29T12:53:45;11.70;99.90
43607;DHT22;29197;44.788;10.366;2022-12-29T12:56:47;11.70;99.90
43607;DHT22;29197;44.788;10.366;2022-12-29T12:59:43;11.70;99.90
43607;DHT22;29197;44.788;10.366;2022-12-29T13:02:43;11.70;99.90
43607;DHT22;29197;44.788;10.366;2022-12-29T13:05:56;11.70;99.90
43607;DHT22;29197;44.788;10.366;2022-12-29T13:12:14;11.60;99.90
43607;DHT22;29197;44.788;10.366;2022-12-29T13:15:12;11.70;99.90
43607;DHT22;29197;44.788;10.366;2022-12-29T13:18:11;11.70;99.90
43607;DHT22;29197;44.788;10.366;2022-12-29T13:21:15;11.70;99.90
43607;DHT22;29197;44.788;10.366;2022-12-29T13:24:15;11.70;99.90
43607;DHT22;29197;44.788;10.366;2022-12-29T13:27:11;11.70;99.90
43607;DHT22;29197;44.788;10.366;2022-12-29T13:30:04;11.70;99.90
43607;DHT22;29197;44.788;10.366;2022-12-29T13:32:57;11.70;99.90
43607;DHT22;29197;44.788;10.366;2022-12-29T13:35:57;11.60;99.90
43607;DHT22;29197;44.788;10.366;2022-12-29T13:38:53;11.60;99.90
43607;DHT22;29197;44.788;10.366;2022-12-29T13:41:49;11.60;99.90
43607;DHT22;29197;44.788;10.366;2022-12-29T13:44:44;11.60;99.90
43607;DHT22;29197;44.788;10.366;2022-12-29T13:47:37;11.60;99.90
43607;DHT22;29197;44.788;10.366;2022-12-29T13:50:29;11.70;99.90
43607;DHT22;29197;44.788;10.366;2022-12-29T13:53:26;11.70;99.90
43607;DHT22;29197;44.788;10.366;2022-12-29T13:56:24;11.70;99.90
43607;DHT22;29197;44.788;10.366;2022-12-29T13:59:19;11.70;99.90
43607;DHT22;29197;44.788;10.366;2022-12-29T14:02:26;11.60;99.90
43607;DHT22;29197;44.788;10.366;2022-12-29T14:05:31;11.60;99.90
43607;DHT22;29197;44.788;10.366;2022-12-29T14:08:24;11.60;99.90
43607;DHT22;29197;44.788;10.366;2022-12-29T14:11:15;11.70;99.90
43607;DHT22;29197;44.788;10.366;2022-12-29T14:14:14;11.70;99.90
43607;DHT22;29197;44.788;10.366;2022-12-29T14:17:09;11.70;99.90
43607;DHT22;29197;44.788;10.366;2022-12-29T14:20:03;11.70;99.90
43607;DHT22;29197;44.788;10.366;2022-12-29T14:22:57;11.70;99.90
43607;DHT22;29197;44.788;10.366;2022-12-29T14:26:32;11.60;99.90
43607;DHT22;29197;44.788;10.366;2022-12-29T14:29:44;11.60;99.90
43607;DHT22;29197;44.788;10.366;2022-12-29T14:32:36;11.50;99.90
43607;DHT22;29197;44.788;10.366;2022-12-29T14:35:39;11.50;99.90
43607;DHT22;29197;44.788;10.366;2022-12-29T14:38:30;11.50;99.90
43607;DHT22;29197;44.788;10.366;2022-12-29T14:41:31;11.50;99.90
43607;DHT22;29197;44.788;10.366;2022-12-29T14:44:21;11.50;99.90
43607;DHT22;29197;44.788;10.366;2022-12-29T14:47:17;11.60;99.90
43607;DHT22;29197;44.788;10.366;2022-12-29T14:50:12;11.50;99.90
43607;DHT22;29197;44.788;10.366;2022-12-29T14:53:03;11.40;99.90
43607;DHT22;29197;44.788;10.366;2022-12-29T14:55:55;11.40;99.90
43607;DHT22;29197;44.788;10.366;2022-12-29T14:58:50;11.40;99.90
43607;DHT22;29197;44.788;10.366;2022-12-29T15:01:44;11.40;99.90
43607;DHT22;29197;44.788;10.366;2022-12-29T15:04:38;11.30;99.90
43607;DHT22;29197;44.788;10.366;2022-12-29T15:07:29;11.40;99.90
43607;DHT22;29197;44.788;10.366;2022-12-29T15:10:19;11.40;99.90
43607;DHT22;29197;44.788;10.366;2022-12-29T15:13:16;11.50;99.90
43607;DHT22;29197;44.788;10.366;2022-12-29T15:16:21;11.50;99.90
43607;DHT22;29197;44.788;10.366;2022-12-29T15:19:21;11.40;99.90
43607;DHT22;29197;44.788;10.366;2022-12-29T15:22:12;11.40;99.90
43607;DHT22;29197;44.788;10.366;2022-12-29T15:25:02;11.40;99.90
43607;DHT22;29197;44.788;10.366;2022-12-29T15:27:54;11.30;99.90
43607;DHT22;29197;44.788;10.366;2022-12-29T15:30:55;11.30;99.90
43607;DHT22;29197;44.788;10.366;2022-12-29T15:33:46;11.10;99.90
43607;DHT22;29197;44.788;10.366;2022-12-29T15:36:38;11.10;99.90
43607;DHT22;29197;44.788;10.366;2022-12-29T15:39:30;11.10;99.90
43607;DHT22;29197;44.788;10.366;2022-12-29T15:42:49;11.20;99.90
43607;DHT22;29197;44.788;10.366;2022-12-29T15:45:40;11.20;99.90
43607;DHT22;29197;44.788;10.366;2022-12-29T15:48:30;11.20;99.90
43607;DHT22;29197;44.788;10.366;2022-12-29T15:51:22;11.30;99.90
43607;DHT22;29197;44.788;10.366;2022-12-29T15:54:16;11.30;99.90
43607;DHT22;29197;44.788;10.366;2022-12-29T15:57:17;11.40;99.90
43607;DHT22;29197;44.788;10.366;2022-12-29T16:00:22;11.30;99.90
43607;DHT22;29197;44.788;10.366;2022-12-29T16:03:13;11.30;99.90
43607;DHT22;29197;44.788;10.366;2022-12-29T16:06:21;11.30;99.90
43607;DHT22;29197;44.788;10.366;2022-12-29T16:09:16;11.30;99.90
43607;DHT22;29197;44.788;10.366;2022-12-29T16:12:14;11.30;99.90
43607;DHT22;29197;44.788;10.366;2022-12-29T16:15:07;11.30;99.90
43607;DHT22;29197;44.788;10.366;2022-12-29T16:18:00;11.40;99.90
43607;DHT22;29197;44.788;10.366;2022-12-29T16:20:49;11.40;99.90
43607;DHT22;29197;44.788;10.366;2022-12-29T16:23:39;11.30;99.90
43607;DHT22;29197;44.788;10.366;2022-12-29T16:26:28;11.30;99.90
43607;DHT22;29197;44.788;10.366;2022-12-29T16:29:20;11.40;99.90
43607;DHT22;29197;44.788;10.366;2022-12-29T16:32:24;11.50;99.90
43607;DHT22;29197;44.788;10.366;2022-12-29T16:35:17;11.40;99.90
43607;DHT22;29197;44.788;10.366;2022-12-29T16:38:13;11.30;99.90
43607;DHT22;29197;44.788;10.366;2022-12-29T16:41:03;11.30;99.90
43607;DHT22;29197;44.788;10.366;2022-12-29T16:44:11;11.30;99.90
43607;DHT22;29197;44.788;10.366;2022-12-29T16:47:18;11.30;99.90
43607;DHT22;29197;44.788;10.366;2022-12-29T16:50:12;11.30;99.90
43607;DHT22;29197;44.788;10.366;2022-12-29T16:53:02;11.30;99.90
43607;DHT22;29197;44.788;10.366;2022-12-29T16:55:52;11.20;99.90
43607;DHT22;29197;44.788;10.366;2022-12-29T16:58:41;11.20;99.90
43607;DHT22;29197;44.788;10.366;2022-12-29T17:01:36;11.30;99.90
43607;DHT22;29197;44.788;10.366;2022-12-29T17:04:29;11.30;99.90
43607;DHT22;29197;44.788;10.366;2022-12-29T17:07:19;11.40;99.90
43607;DHT22;29197;44.788;10.366;2022-12-29T17:10:09;11.30;99.90
43607;DHT22;29197;44.788;10.366;2022-12-29T17:12:59;11.40;99.90
43607;DHT22;29197;44.788;10.366;2022-12-29T17:15:48;11.40;99.90
43607;DHT22;29197;44.788;10.366;2022-12-29T17:18:37;11.30;99.90
43607;DHT22;29197;44.788;10.366;2022-12-29T17:21:28;11.40;99.90
43607;DHT22;29197;44.788;10.366;2022-12-29T17:24:18;11.40;99.90
43607;DHT22;29197;44.788;10.366;2022-12-29T17:27:12;11.40;99.90
43607;DHT22;29197;44.788;10.366;2022-12-29T17:30:11;11.40;99.90
43607;DHT22;29197;44.788;10.366;2022-12-29T17:33:03;11.40;99.90
43607;DHT22;29197;44.788;10.366;2022-12-29T17:35:53;11.20;99.90
43607;DHT22;29197;44.788;10.366;2022-12-29T17:38:43;11.20;99.90
43607;DHT22;29197;44.788;10.366;2022-12-29T17:41:35;11.30;99.90
43607;DHT22;29197;44.788;10.366;2022-12-29T17:44:28;11.30;99.90
43607;DHT22;29197;44.788;10.366;2022-12-29T17:47:17;11.40;99.90
43607;DHT22;29197;44.788;10.366;2022-12-29T17:50:10;11.40;99.90
43607;DHT22;29197;44.788;10.366;2022-12-29T17:53:03;11.40;99.90
43607;DHT22;29197;44.788;10.366;2022-12-29T17:55:54;11.40;99.90
43607;DHT22;29197;44.788;10.366;2022-12-29T17:58:43;11.40;99.90
43607;DHT22;29197;44.788;10.366;2022-12-29T18:01:32;11.40;99.90
43607;DHT22;29197;44.788;10.366;2022-12-29T18:04:27;11.40;99.90
43607;DHT22;29197;44.788;10.366;2022-12-29T18:07:16;11.40;99.90
43607;DHT22;29197;44.788;10.366;2022-12-29T18:10:05;11.40;99.90
43607;DHT22;29197;44.788;10.366;2022-12-29T18:12:59;11.40;99.90
43607;DHT22;29197;44.788;10.366;2022-12-29T18:15:50;11.40;99.90
43607;DHT22;29197;44.788;10.366;2022-12-29T18:18:39;11.40;99.90
43607;DHT22;29197;44.788;10.366;2022-12-29T18:21:29;11.40;99.90
43607;DHT22;29197;44.788;10.366;2022-12-29T18:24:18;11.40;99.90
43607;DHT22;29197;44.788;10.366;2022-12-29T18:27:11;11.40;99.90
43607;DHT22;29197;44.788;10.366;2022-12-29T18:30:02;11.50;99.90
43607;DHT22;29197;44.788;10.366;2022-12-29T18:32:52;11.40;99.90
43607;DHT22;29197;44.788;10.366;2022-12-29T18:35:44;11.40;99.90
43607;DHT22;29197;44.788;10.366;2022-12-29T18:38:34;11.40;99.90
43607;DHT22;29197;44.788;10.366;2022-12-29T18:41:24;11.40;99.90
43607;DHT22;29197;44.788;10.366;2022-12-29T18:44:15;11.40;99.90
43607;DHT22;29197;44.788;10.366;2022-12-29T18:47:06;11.40;99.90
43607;DHT22;29197;44.788;10.366;2022-12-29T18:49:55;11.40;99.90
43607;DHT22;29197;44.788;10.366;2022-12-29T18:52:45;11.30;99.90
43607;DHT22;29197;44.788;10.366;2022-12-29T18:55:34;11.30;99.90
43607;DHT22;29197;44.788;10.366;2022-12-29T18:58:23;11.30;99.90
43607;DHT22;29197;44.788;10.366;2022-12-29T19:01:21;11.30;99.90
43607;DHT22;29197;44.788;10.366;2022-12-29T19:04:13;11.30;99.90
43607;DHT22;29197;44.788;10.366;2022-12-29T19:07:03;11.30;99.90
43607;DHT22;29197;44.788;10.366;2022-12-29T19:09:52;11.30;99.90
43607;DHT22;29197;44.788;10.366;2022-12-29T19:12:42;11.30;99.90
43607;DHT22;29197;44.788;10.366;2022-12-29T19:15:33;11.30;99.90
43607;DHT22;29197;44.788;10.366;2022-12-29T19:18:25;11.30;99.90
43607;DHT22;29197;44.788;10.366;2022-12-29T19:21:35;11.30;99.90
43607;DHT22;29197;44.788;10.366;2022-12-29T19:24:26;11.40;99.90
43607;DHT22;29197;44.788;10.366;2022-12-29T19:27:16;11.30;99.90
43607;DHT22;29197;44.788;10.366;2022-12-29T19:30:09;11.40;99.90
43607;DHT22;29197;44.788;10.366;2022-12-29T19:32:59;11.30;99.90
43607;DHT22;29197;44.788;10.366;2022-12-29T19:35:59;11.30;99.90
43607;DHT22;29197;44.788;10.366;2022-12-29T19:38:50;11.40;99.90
43607;DHT22;29197;44.788;10.366;2022-12-29T19:41:39;11.40;99.90
43607;DHT22;29197;44.788;10.366;2022-12-29T19:44:28;11.30;99.90
43607;DHT22;29197;44.788;10.366;2022-12-29T19:47:17;11.30;99.90
43607;DHT22;29197;44.788;10.366;2022-12-29T19:50:09;11.20;99.90
43607;DHT22;29197;44.788;10.366;2022-12-29T19:53:00;11.20;99.90
43607;DHT22;29197;44.788;10.366;2022-12-29T19:55:53;11.20;99.90
43607;DHT22;29197;44.788;10.366;2022-12-29T19:58:42;11.20;99.90
43607;DHT22;29197;44.788;10.366;2022-12-29T20:01:34;11.20;99.90
43607;DHT22;29197;44.788;10.366;2022-12-29T20:04:24;11.20;99.90
43607;DHT22;29197;44.788;10.366;2022-12-29T20:07:13;11.20;99.90
43607;DHT22;29197;44.788;10.366;2022-12-29T20:10:06;11.20;99.90
43607;DHT22;29197;44.788;10.366;2022-12-29T20:12:57;11.20;99.90
43607;DHT22;29197;44.788;10.366;2022-12-29T20:15:46;11.20;99.90
43607;DHT22;29197;44.788;10.366;2022-12-29T20:18:37;11.20;99.90
43607;DHT22;29197;44.788;10.366;2022-12-29T20:21:26;11.20;99.90
43607;DHT22;29197;44.788;10.366;2022-12-29T20:24:15;11.10;99.90
43607;DHT22;29197;44.788;10.366;2022-12-29T20:27:08;11.10;99.90
43607;DHT22;29197;44.788;10.366;2022-12-29T20:30:01;11.20;99.90
43607;DHT22;29197;44.788;10.366;2022-12-29T20:32:49;11.20;99.90
43607;DHT22;29197;44.788;10.366;2022-12-29T20:35:39;11.20;99.90
43607;DHT22;29197;44.788;10.366;2022-12-29T20:38:28;11.30;99.90
43607;DHT22;29197;44.788;10.366;2022-12-29T20:41:17;11.30;99.90
43607;DHT22;29197;44.788;10.366;2022-12-29T20:44:07;11.20;99.90
43607;DHT22;29197;44.788;10.366;2022-12-29T20:46:58;11.20;99.90
43607;DHT22;29197;44.788;10.366;2022-12-29T20:49:48;11.20;99.90
43607;DHT22;29197;44.788;10.366;2022-12-29T20:52:37;11.20;99.90
43607;DHT22;29197;44.788;10.366;2022-12-29T20:55:26;11.20;99.90
43607;DHT22;29197;44.788;10.366;2022-12-29T20:58:15;11.20;99.90
43607;DHT22;29197;44.788;10.366;2022-12-29T21:01:14;11.20;99.90
43607;DHT22;29197;44.788;10.366;2022-12-29T21:04:06;11.20;99.90
43607;DHT22;29197;44.788;10.366;2022-12-29T21:06:56;11.30;99.90
43607;DHT22;29197;44.788;10.366;2022-12-29T21:09:45;11.30;99.90
43607;DHT22;29197;44.788;10.366;2022-12-29T21:12:36;11.30;99.90
43607;DHT22;29197;44.788;10.366;2022-12-29T21:15:25;11.30;99.90
43607;DHT22;29197;44.788;10.366;2022-12-29T21:18:14;11.20;99.90
43607;DHT22;29197;44.788;10.366;2022-12-29T21:21:08;11.20;99.90
43607;DHT22;29197;44.788;10.366;2022-12-29T21:23:57;11.20;99.90
43607;DHT22;29197;44.788;10.366;2022-12-29T21:26:52;11.20;99.90
43607;DHT22;29197;44.788;10.366;2022-12-29T21:29:41;11.20;99.90
43607;DHT22;29197;44.788;10.366;2022-12-29T21:32:31;11.20;99.90
43607;DHT22;29197;44.788;10.366;2022-12-29T21:35:22;11.20;99.90
43607;DHT22;29197;44.788;10.366;2022-12-29T21:38:13;11.30;99.90
43607;DHT22;29197;44.788;10.366;2022-12-29T21:41:07;11.30;99.90
43607;DHT22;29197;44.788;10.366;2022-12-29T21:43:58;11.30;99.90
43607;DHT22;29197;44.788;10.366;2022-12-29T21:47:05;11.30;99.90
43607;DHT22;29197;44.788;10.366;2022-12-29T21:49:54;11.30;99.90
43607;DHT22;29197;44.788;10.366;2022-12-29T21:52:43;11.40;99.90
43607;DHT22;29197;44.788;10.366;2022-12-29T21:55:34;11.40;99.90
43607;DHT22;29197;44.788;10.366;2022-12-29T21:58:24;11.40;99.90
43607;DHT22;29197;44.788;10.366;2022-12-29T22:01:31;11.40;99.90
43607;DHT22;29197;44.788;10.366;2022-12-29T22:04:37;11.40;99.90
43607;DHT22;29197;44.788;10.366;2022-12-29T22:07:43;11.40;99.90
43607;DHT22;29197;44.788;10.366;2022-12-29T22:10:51;11.40;99.90
43607;DHT22;29197;44.788;10.366;2022-12-29T22:13:58;11.40;99.90
43607;DHT22;29197;44.788;10.366;2022-12-29T22:16:48;11.40;99.90
43607;DHT22;29197;44.788;10.366;2022-12-29T22:19:37;11.40;99.90
43607;DHT22;29197;44.788;10.366;2022-12-29T22:22:26;11.40;99.90
43607;DHT22;29197;44.788;10.366;2022-12-29T22:25:16;11.50;99.90
43607;DHT22;29197;44.788;10.366;2022-12-29T22:28:07;11.40;99.90
43607;DHT22;29197;44.788;10.366;2022-12-29T22:30:56;11.40;99.90
43607;DHT22;29197;44.788;10.366;2022-12-29T22:33:47;11.40;99.90
43607;DHT22;29197;44.788;10.366;2022-12-29T22:36:36;11.40;99.90
43607;DHT22;29197;44.788;10.366;2022-12-29T22:39:25;11.40;99.90
43607;DHT22;29197;44.788;10.366;2022-12-29T22:42:14;11.40;99.90
43607;DHT22;29197;44.788;10.366;2022-12-29T22:45:06;11.40;99.90
43607;DHT22;29197;44.788;10.366;2022-12-29T22:47:55;11.40;99.90
43607;DHT22;29197;44.788;10.366;2022-12-29T22:50:44;11.40;99.90
43607;DHT22;29197;44.788;10.366;2022-12-29T22:53:34;11.40;99.90
43607;DHT22;29197;44.788;10.366;2022-12-29T22:56:23;11.40;99.90
43607;DHT22;29197;44.788;10.366;2022-12-29T22:59:13;11.40;99.90
43607;DHT22;29197;44.788;10.366;2022-12-29T23:02:04;11.40;99.90
43607;DHT22;29197;44.788;10.366;2022-12-29T23:04:53;11.40;99.90
43607;DHT22;29197;44.788;10.366;2022-12-29T23:07:50;11.40;99.90
43607;DHT22;29197;44.788;10.366;2022-12-29T23:10:39;11.40;99.90
43607;DHT22;29197;44.788;10.366;2022-12-29T23:13:28;11.40;99.90
43607;DHT22;29197;44.788;10.366;2022-12-29T23:16:18;11.40;99.90
43607;DHT22;29197;44.788;10.366;2022-12-29T23:19:09;11.40;99.90
43607;DHT22;29197;44.788;10.366;2022-12-29T23:21:58;11.40;99.90
43607;DHT22;29197;44.788;10.366;2022-12-29T23:24:48;11.40;99.90
43607;DHT22;29197;44.788;10.366;2022-12-29T23:27:37;11.40;99.90
43607;DHT22;29197;44.788;10.366;2022-12-29T23:30:26;11.40;99.90
43607;DHT22;29197;44.788;10.366;2022-12-29T23:33:15;11.40;99.90
43607;DHT22;29197;44.788;10.366;2022-12-29T23:36:07;11.30;99.90
43607;DHT22;29197;44.788;10.366;2022-12-29T23:38:56;11.30;99.90
43607;DHT22;29197;44.788;10.366;2022-12-29T23:41:46;11.30;99.90
43607;DHT22;29197;44.788;10.366;2022-12-29T23:44:35;11.30;99.90
43607;DHT22;29197;44.788;10.366;2022-12-29T23:47:23;11.30;99.90
43607;DHT22;29197;44.788;10.366;2022-12-29T23:50:12;11.30;99.90
43607;DHT22;29197;44.788;10.366;2022-12-29T23:53:03;11.30;99.90
43607;DHT22;29197;44.788;10.366;2022-12-29T23:55:54;11.40;99.90
43607;DHT22;29197;44.788;10.366;2022-12-29T23:58:43;11.30;99.90
